Terminal Aerodrome Forecast
Issued by NWS Shreveport, LA

Home | Current Version | Previous Version | Text Only | Print | Product List | Glossary On
Versions: 1 2 3 4 5 6 7 8 9 10 11 12 13 14 15
000
FTUS44 KSHV 271121
TAFELD
TAF
KELD 271121Z 2712/2812 00000KT P6SM BKN100
      TEMPO 2712/2714 3SM BR SKC
     FM271700 31012G18KT P6SM SCT120
     FM272200 01005KT P6SM SKC
     FM280200 VRB03KT P6SM SKC=

USA.gov is the U.S. government's official web portal to all federal, state and local government web resources and services.